createdAt,value
2023-04-16T00:02:27.518Z,70.70
2023-04-16T00:04:55.224Z,72.05
2023-04-16T00:07:23.446Z,73.58
2023-04-16T00:09:51.179Z,77.25
2023-04-16T00:12:18.879Z,78.19
2023-04-16T00:14:46.412Z,77.79
2023-04-16T00:17:15.686Z,77.51
2023-04-16T00:19:43.030Z,76.51
2023-04-16T00:22:11.282Z,76.33
2023-04-16T00:24:38.432Z,77.36
2023-04-16T00:27:06.957Z,76.98
2023-04-16T00:29:34.395Z,76.79
2023-04-16T00:32:05.062Z,76.94
2023-04-16T00:34:33.999Z,77.77
2023-04-16T00:37:01.826Z,78.31
2023-04-16T00:39:29.366Z,79.75
2023-04-16T00:41:57.735Z,79.49
2023-04-16T00:44:25.203Z,79.47
2023-04-16T00:46:53.685Z,79.01
2023-04-16T00:49:21.187Z,79.00
2023-04-16T00:51:50.871Z,78.78
2023-04-16T00:54:19.396Z,79.16
2023-04-16T00:56:47.511Z,79.13
2023-04-16T00:59:15.187Z,78.61
2023-04-16T01:01:43.047Z,78.48
2023-04-16T01:04:10.641Z,78.93
2023-04-16T01:06:38.631Z,78.27
2023-04-16T01:09:07.746Z,78.41
2023-04-16T01:11:35.670Z,78.96
2023-04-16T01:14:03.168Z,78.72
2023-04-16T01:16:31.231Z,77.75
2023-04-16T01:18:58.670Z,77.85
2023-04-16T01:21:27.923Z,78.46
2023-04-16T01:23:55.294Z,78.68
2023-04-16T01:26:23.118Z,78.97
2023-04-16T01:28:50.875Z,79.00
2023-04-16T01:31:18.747Z,79.75
2023-04-16T01:33:46.237Z,79.89
2023-04-16T01:36:13.993Z,80.57
2023-04-16T01:38:42.757Z,80.66
2023-04-16T01:41:10.636Z,80.31
2023-04-16T01:43:40.047Z,80.08
2023-04-16T01:46:18.099Z,79.94
2023-04-16T01:48:45.686Z,80.34
2023-04-16T01:51:13.609Z,79.93
2023-04-16T01:53:42.425Z,79.49
2023-04-16T01:56:10.190Z,79.39
2023-04-16T01:58:37.597Z,79.05
2023-04-16T02:01:05.669Z,78.93
2023-04-16T02:03:33.383Z,78.34
2023-04-16T02:06:01.275Z,78.73
2023-04-16T02:08:28.722Z,79.10
2023-04-16T02:10:58.497Z,79.71
2023-04-16T02:13:26.011Z,79.96
2023-04-16T02:15:54.028Z,79.66
2023-04-16T02:18:21.720Z,79.47
2023-04-16T02:20:49.587Z,79.15
2023-04-16T02:23:16.986Z,79.58
2023-04-16T02:25:46.006Z,79.61
2023-04-16T02:28:17.820Z,79.33
2023-04-16T02:30:45.733Z,79.43
2023-04-16T02:33:13.317Z,79.24
2023-04-16T02:35:41.379Z,79.40
2023-04-16T02:38:08.840Z,79.48
2023-04-16T02:40:36.663Z,79.26
2023-04-16T02:43:04.044Z,78.99
2023-04-16T02:45:33.345Z,78.71
2023-04-16T02:48:00.810Z,79.17
2023-04-16T02:50:28.513Z,79.28
2023-04-16T02:52:55.907Z,79.54
2023-04-16T02:55:23.711Z,79.79
2023-04-16T02:57:51.106Z,80.15
2023-04-16T03:00:19.657Z,79.81
2023-04-16T03:02:48.659Z,79.34
2023-04-16T03:05:16.714Z,79.50
2023-04-16T03:07:43.939Z,80.46
2023-04-16T03:10:12.091Z,81.08
2023-04-16T03:12:39.529Z,81.04
2023-04-16T03:15:08.073Z,80.57
2023-04-16T03:17:35.504Z,80.52
2023-04-16T03:20:05.905Z,80.78
2023-04-16T03:22:33.401Z,80.38
2023-04-16T03:25:01.220Z,80.92
2023-04-16T03:27:28.590Z,80.65
2023-04-16T03:29:56.437Z,81.42
2023-04-16T03:32:23.851Z,81.33
2023-04-16T03:34:51.592Z,81.11
2023-04-16T03:37:20.474Z,79.95
2023-04-16T03:39:48.357Z,79.81
2023-04-16T03:42:15.920Z,79.62
2023-04-16T03:44:43.897Z,79.46
2023-04-16T03:47:11.312Z,79.51
2023-04-16T03:49:39.150Z,79.71
2023-04-16T03:52:06.606Z,79.91
2023-04-16T03:54:35.953Z,80.62
2023-04-16T03:57:03.510Z,81.52
2023-04-16T03:59:31.608Z,81.87
2023-04-16T04:01:59.075Z,82.29
2023-04-16T04:04:26.978Z,82.85
2023-04-16T04:06:54.421Z,83.18
2023-04-16T04:09:22.118Z,83.37
2023-04-16T04:11:51.126Z,83.09
2023-04-16T04:14:18.910Z,82.91
2023-04-16T04:16:46.275Z,83.13
2023-04-16T04:19:13.991Z,82.88
2023-04-16T04:21:41.435Z,83.06
2023-04-16T04:24:09.189Z,83.04
2023-04-16T04:26:36.603Z,83.83
2023-04-16T04:29:05.828Z,83.11
2023-04-16T04:31:33.260Z,82.24
2023-04-16T04:34:01.044Z,82.76
2023-04-16T04:36:28.674Z,83.45
2023-04-16T04:38:56.629Z,83.47
2023-04-16T04:41:24.363Z,84.37
2023-04-16T04:43:52.374Z,84.11
2023-04-16T04:46:21.353Z,84.17
2023-04-16T04:48:49.239Z,85.14
2023-04-16T04:51:16.560Z,85.27
2023-04-16T04:53:44.388Z,85.01
2023-04-16T04:56:13.044Z,84.76
2023-04-16T04:58:41.474Z,84.53
2023-04-16T05:01:08.896Z,85.20
2023-04-16T05:03:38.431Z,85.90
2023-04-16T05:06:06.899Z,85.83
2023-04-16T05:08:34.535Z,85.50
2023-04-16T05:11:02.385Z,85.37
2023-04-16T05:13:30.073Z,85.34
2023-04-16T05:15:57.499Z,85.23
2023-04-16T05:18:25.395Z,86.09
2023-04-16T05:20:54.273Z,86.20
2023-04-16T05:23:22.382Z,85.76
2023-04-16T05:25:49.780Z,86.17
2023-04-16T05:28:17.533Z,86.03
2023-04-16T05:30:44.965Z,86.19
2023-04-16T05:33:12.973Z,86.83
2023-04-16T05:35:40.416Z,87.00
2023-04-16T05:38:09.628Z,86.42
2023-04-16T05:40:37.085Z,87.30
2023-04-16T05:43:04.867Z,86.75
2023-04-16T05:45:32.067Z,87.20
2023-04-16T05:47:59.983Z,86.80
2023-04-16T05:50:27.547Z,86.57
2023-04-16T05:52:55.290Z,86.09
2023-04-16T05:55:24.252Z,85.51
2023-04-16T05:57:52.119Z,84.80
2023-04-16T06:00:19.637Z,85.75
2023-04-16T06:02:47.611Z,85.74
2023-04-16T06:05:15.148Z,85.68
2023-04-16T06:07:43.035Z,85.01
2023-04-16T06:10:11.158Z,84.50
2023-04-16T06:12:40.351Z,84.42
2023-04-16T06:15:09.177Z,84.36
2023-04-16T06:17:37.005Z,84.90
2023-04-16T06:20:05.024Z,85.46
2023-04-16T06:22:32.981Z,86.03
2023-04-16T06:25:00.774Z,86.66
2023-04-16T06:27:28.789Z,86.49
2023-04-16T06:29:57.969Z,85.71
2023-04-16T06:32:25.853Z,85.84
2023-04-16T06:34:53.436Z,86.43
2023-04-16T06:37:21.122Z,86.50
2023-04-16T06:39:48.323Z,86.05
2023-04-16T06:42:16.453Z,84.15
2023-04-16T06:44:43.772Z,83.46
2023-04-16T06:47:12.941Z,84.20
2023-04-16T06:49:40.728Z,84.30
2023-04-16T06:52:08.501Z,82.53
2023-04-16T06:54:36.146Z,82.38
2023-04-16T06:57:04.315Z,80.93
2023-04-16T06:59:31.986Z,80.46
2023-04-16T07:01:59.847Z,80.30
2023-04-16T07:04:28.865Z,80.47
2023-04-16T07:06:57.001Z,81.33
2023-04-16T07:09:24.301Z,81.07
2023-04-16T07:11:52.044Z,80.67
2023-04-16T07:14:19.457Z,79.44
2023-04-16T07:16:47.572Z,79.54
2023-04-16T07:19:15.112Z,79.97
2023-04-16T07:21:44.515Z,79.80
2023-04-16T07:24:12.295Z,80.73
2023-04-16T07:26:40.144Z,81.40
2023-04-16T07:29:07.749Z,81.69
2023-04-16T07:31:35.788Z,82.64
2023-04-16T07:34:03.378Z,81.83
2023-04-16T07:36:31.132Z,82.06
2023-04-16T07:39:00.039Z,81.54
2023-04-16T07:41:28.263Z,81.20
2023-04-16T07:43:55.826Z,81.51
2023-04-16T07:46:24.977Z,81.30
2023-04-16T07:48:54.073Z,81.66
2023-04-16T07:51:23.623Z,81.35
2023-04-16T07:53:51.005Z,80.82
2023-04-16T07:56:20.478Z,79.92
2023-04-16T07:58:47.888Z,80.46
2023-04-16T08:01:15.656Z,80.83
2023-04-16T08:03:43.512Z,79.89
2023-04-16T08:06:11.604Z,78.76
2023-04-16T08:08:39.017Z,78.40
2023-04-16T08:11:06.975Z,77.10
2023-04-16T08:13:35.876Z,77.32
2023-04-16T08:16:04.172Z,77.66
2023-04-16T08:18:31.731Z,77.39
2023-04-16T08:20:59.413Z,76.68
2023-04-16T08:23:26.930Z,76.95
2023-04-16T08:25:55.141Z,77.71
2023-04-16T08:28:22.453Z,77.27
2023-04-16T08:30:52.031Z,76.42
2023-04-16T08:33:19.565Z,75.99
2023-04-16T08:35:47.416Z,75.63
2023-04-16T08:38:14.960Z,76.66
2023-04-16T08:40:43.833Z,76.56
2023-04-16T08:43:13.570Z,76.19
2023-04-16T08:45:42.043Z,75.92
2023-04-16T08:48:12.045Z,75.03
2023-04-16T08:50:41.298Z,75.99
2023-04-16T08:53:15.187Z,75.17
2023-04-16T08:55:48.135Z,74.66
2023-04-16T08:58:18.678Z,74.46
2023-04-16T09:00:48.580Z,74.54
2023-04-16T09:03:17.939Z,74.72
2023-04-16T09:05:47.164Z,73.76
2023-04-16T09:08:14.908Z,73.89
2023-04-16T09:10:43.598Z,72.27
2023-04-16T09:13:11.083Z,71.74
2023-04-16T09:15:40.010Z,70.16
2023-04-16T09:18:07.728Z,70.78
2023-04-16T09:20:36.932Z,68.51
2023-04-16T09:23:04.446Z,69.64
2023-04-16T09:25:33.872Z,69.77
2023-04-16T09:28:01.439Z,68.89
2023-04-16T09:30:29.317Z,63.28
2023-04-16T09:33:15.420Z,61.69
2023-04-16T09:35:48.857Z,63.46
2023-04-16T09:38:17.131Z,63.08
2023-04-16T09:40:45.257Z,62.01
2023-04-16T09:43:14.091Z,60.81
2023-04-16T09:45:49.463Z,57.04
2023-04-16T09:48:27.873Z,59.27
2023-04-16T09:50:57.301Z,60.35
2023-04-16T09:53:25.377Z,58.55
2023-04-16T09:55:53.134Z,58.13
2023-04-16T09:58:20.523Z,58.07
2023-04-16T10:00:48.279Z,57.24
2023-04-16T10:03:15.699Z,56.92
2023-04-16T10:05:43.674Z,56.07
2023-04-16T10:08:16.655Z,55.77
2023-04-16T10:10:45.141Z,54.21
2023-04-16T10:13:12.825Z,55.11
2023-04-16T10:15:41.464Z,53.64
2023-04-16T10:18:09.662Z,53.33
2023-04-16T10:20:37.872Z,52.94
2023-04-16T10:23:06.418Z,53.65
2023-04-16T10:25:35.743Z,55.56
2023-04-16T10:28:03.524Z,54.19
2023-04-16T10:30:31.577Z,52.86
2023-04-16T10:33:00.686Z,52.80
2023-04-16T10:35:28.605Z,46.88
2023-04-16T10:37:57.521Z,48.65
2023-04-16T10:40:26.855Z,48.57
2023-04-16T10:42:56.874Z,50.43
2023-04-16T10:45:31.152Z,50.57
2023-04-16T10:47:58.801Z,49.41
2023-04-16T10:50:35.277Z,49.19
2023-04-16T10:53:17.908Z,53.57
2023-04-16T10:56:09.987Z,46.17
2023-04-16T10:58:38.836Z,46.32
2023-04-16T11:01:13.121Z,49.12
2023-04-16T11:03:46.620Z,50.41
2023-04-16T11:06:15.534Z,49.05
2023-04-16T11:08:53.978Z,48.31
2023-04-16T11:11:22.937Z,48.34
2023-04-16T11:13:55.913Z,48.78
2023-04-16T11:16:25.391Z,43.63
2023-04-16T11:18:53.949Z,44.45
2023-04-16T11:21:23.937Z,45.10
2023-04-16T11:23:53.551Z,44.48
2023-04-16T11:26:24.025Z,46.47
2023-04-16T11:28:54.379Z,45.76
2023-04-16T11:31:22.254Z,44.74
2023-04-16T11:33:49.729Z,43.24
2023-04-16T11:36:17.627Z,42.48
2023-04-16T11:38:45.643Z,40.25
2023-04-16T11:41:19.985Z,42.26
2023-04-16T11:43:47.323Z,41.24
2023-04-16T11:46:24.514Z,42.12
2023-04-16T11:48:55.472Z,42.53
2023-04-16T11:51:23.709Z,42.54
2023-04-16T11:53:52.044Z,42.67
2023-04-16T11:56:27.308Z,38.17
2023-04-16T11:59:08.268Z,42.07
2023-04-16T12:01:39.126Z,41.74
2023-04-16T12:04:07.471Z,43.37
2023-04-16T12:06:35.647Z,41.95
2023-04-16T12:09:24.155Z,39.81
2023-04-16T12:11:51.941Z,41.41
2023-04-16T12:14:21.036Z,40.61
2023-04-16T12:16:50.237Z,41.66
2023-04-16T12:19:18.336Z,39.91
2023-04-16T12:21:51.193Z,39.20
2023-04-16T12:24:19.390Z,39.89
2023-04-16T12:26:48.572Z,39.72
2023-04-16T12:29:17.381Z,38.82
2023-04-16T12:31:45.777Z,37.31
2023-04-16T12:34:14.978Z,37.87
2023-04-16T12:36:43.529Z,40.95
2023-04-16T12:39:11.244Z,39.43
2023-04-16T12:41:40.182Z,38.11
2023-04-16T12:44:09.296Z,39.08
2023-04-16T12:46:36.953Z,36.13
2023-04-16T12:49:04.396Z,36.93
2023-04-16T12:51:34.701Z,37.82
2023-04-16T12:54:03.100Z,37.40
2023-04-16T12:56:31.663Z,34.37
2023-04-16T12:58:58.982Z,37.33
2023-04-16T13:01:26.976Z,36.17
2023-04-16T13:03:54.549Z,37.85
2023-04-16T13:06:22.700Z,36.91
2023-04-16T13:08:51.572Z,36.79
2023-04-16T13:11:19.301Z,36.21
2023-04-16T13:13:46.665Z,36.38
2023-04-16T13:16:14.538Z,34.29
2023-04-16T13:18:41.828Z,36.84
2023-04-16T13:21:09.669Z,35.88
2023-04-16T13:23:37.084Z,36.70
2023-04-16T13:26:06.271Z,34.73
2023-04-16T13:28:33.869Z,32.96
2023-04-16T13:31:04.267Z,36.79
2023-04-16T13:33:33.089Z,37.30
2023-04-16T13:36:00.916Z,35.89
2023-04-16T13:38:28.454Z,35.48
2023-04-16T13:40:56.226Z,35.57
2023-04-16T13:43:24.890Z,34.14
2023-04-16T13:45:52.582Z,36.27
2023-04-16T13:48:20.049Z,35.35
2023-04-16T13:50:47.785Z,35.67
2023-04-16T13:53:15.155Z,35.64
2023-04-16T13:55:43.182Z,34.83
2023-04-16T13:58:10.655Z,35.01
2023-04-16T14:00:39.663Z,34.90
2023-04-16T14:03:07.281Z,33.93
2023-04-16T14:05:35.171Z,34.13
2023-04-16T14:08:02.640Z,34.48
2023-04-16T14:10:31.655Z,34.55
2023-04-16T14:12:59.150Z,34.57
2023-04-16T14:15:26.882Z,36.13
2023-04-16T14:17:55.743Z,34.01
2023-04-16T14:20:23.642Z,34.89
2023-04-16T14:22:50.943Z,35.32
2023-04-16T14:25:18.720Z,36.68
2023-04-16T14:27:46.204Z,35.77
2023-04-16T14:30:14.226Z,35.99
2023-04-16T14:32:41.547Z,37.05
2023-04-16T14:35:11.018Z,37.17
2023-04-16T14:37:38.388Z,38.06
2023-04-16T14:40:07.462Z,36.56
2023-04-16T14:42:35.017Z,34.87
2023-04-16T14:45:03.306Z,37.56
2023-04-16T14:47:30.781Z,35.66
2023-04-16T14:49:58.675Z,35.48
2023-04-16T14:52:27.701Z,34.15
2023-04-16T14:54:55.565Z,34.58
2023-04-16T14:57:22.967Z,35.26
2023-04-16T14:59:50.798Z,33.64
2023-04-16T15:02:18.287Z,34.59
2023-04-16T15:04:46.222Z,33.13
2023-04-16T15:07:13.706Z,33.80
2023-04-16T15:09:42.832Z,33.51
2023-04-16T15:12:10.086Z,34.19
2023-04-16T15:14:38.034Z,34.82
2023-04-16T15:17:05.555Z,35.29
2023-04-16T15:19:33.396Z,35.43
2023-04-16T15:22:01.067Z,34.58
2023-04-16T15:24:28.872Z,35.19
2023-04-16T15:26:57.666Z,35.25
2023-04-16T15:29:25.501Z,37.52
2023-04-16T15:31:52.879Z,34.01
2023-04-16T15:34:20.616Z,33.11
2023-04-16T15:36:47.967Z,36.20
2023-04-16T15:39:15.691Z,34.23
2023-04-16T15:41:57.390Z,35.13
2023-04-16T15:44:30.378Z,35.55
2023-04-16T15:46:57.845Z,35.50
2023-04-16T15:49:25.783Z,35.06
2023-04-16T15:51:53.282Z,34.25
2023-04-16T15:54:21.093Z,35.02
2023-04-16T15:56:48.370Z,35.02
2023-04-16T15:59:16.078Z,36.64
2023-04-16T16:01:45.083Z,36.15
2023-04-16T16:04:13.016Z,36.14
2023-04-16T16:06:40.506Z,35.85
2023-04-16T16:09:08.453Z,35.97
2023-04-16T16:11:37.012Z,36.55
2023-04-16T16:14:04.853Z,39.95
2023-04-16T16:16:32.332Z,39.75
2023-04-16T16:19:01.627Z,40.65
2023-04-16T16:21:30.168Z,43.69
2023-04-16T16:23:57.914Z,46.27
2023-04-16T16:26:25.247Z,48.12
2023-04-16T16:28:52.941Z,50.56
2023-04-16T16:31:20.277Z,50.09
2023-04-16T16:33:48.063Z,50.27
2023-04-16T16:36:16.886Z,52.13
2023-04-16T16:38:44.675Z,51.52
2023-04-16T16:41:12.061Z,51.40
2023-04-16T16:43:39.783Z,52.02
2023-04-16T16:46:07.121Z,51.54
2023-04-16T16:48:34.954Z,52.04
2023-04-16T16:51:02.250Z,55.57
2023-04-16T16:53:31.363Z,59.61
2023-04-16T16:55:58.667Z,62.79
2023-04-16T16:58:26.348Z,64.04
2023-04-16T17:00:53.652Z,64.46
2023-04-16T17:03:21.500Z,63.91
2023-04-16T17:05:49.025Z,64.66
2023-04-16T17:08:16.986Z,65.53
2023-04-16T17:10:45.747Z,64.59
2023-04-16T17:13:13.625Z,63.97
2023-04-16T17:15:41.556Z,63.99
2023-04-16T17:18:09.239Z,62.54
2023-04-16T17:20:36.664Z,60.94
2023-04-16T17:23:04.493Z,60.34
2023-04-16T17:25:32.133Z,58.63
2023-04-16T17:28:01.317Z,58.25
2023-04-16T17:30:30.593Z,57.84
2023-04-16T17:32:58.344Z,58.06
2023-04-16T17:35:25.936Z,57.47
2023-04-16T17:37:53.788Z,57.80
2023-04-16T17:40:21.241Z,58.22
2023-04-16T17:42:49.328Z,57.47
2023-04-16T17:45:18.302Z,56.80
2023-04-16T17:47:46.193Z,57.84
2023-04-16T17:50:13.636Z,57.79
2023-04-16T17:52:41.477Z,56.81
2023-04-16T17:55:10.908Z,57.80
2023-04-16T17:57:38.785Z,57.86
2023-04-16T18:00:07.263Z,58.36
2023-04-16T18:02:36.587Z,59.61
2023-04-16T18:05:04.742Z,60.28
2023-04-16T18:07:32.616Z,60.69
2023-04-16T18:10:00.178Z,61.55
2023-04-16T18:12:27.993Z,62.52
2023-04-16T18:14:55.313Z,62.68
2023-04-16T18:17:23.133Z,62.95
2023-04-16T18:19:51.938Z,64.00
2023-04-16T18:22:19.640Z,65.06
2023-04-16T18:24:46.988Z,65.06
2023-04-16T18:27:14.783Z,65.80
2023-04-16T18:29:44.102Z,65.45
2023-04-16T18:32:12.939Z,65.35
2023-04-16T18:34:40.419Z,65.13
2023-04-16T18:37:09.836Z,65.39
2023-04-16T18:39:37.233Z,65.99
2023-04-16T18:42:05.235Z,66.24
2023-04-16T18:44:32.756Z,66.31
2023-04-16T18:47:00.526Z,66.46
2023-04-16T18:49:28.117Z,66.67
2023-04-16T18:51:55.919Z,66.94
2023-04-16T18:54:25.017Z,67.01
2023-04-16T18:56:52.778Z,67.67
2023-04-16T18:59:20.316Z,67.42
2023-04-16T19:01:48.149Z,66.93
2023-04-16T19:04:15.625Z,66.26
2023-04-16T19:06:43.303Z,66.13
2023-04-16T19:09:11.659Z,66.44
2023-04-16T19:11:41.203Z,66.54
2023-04-16T19:14:08.595Z,66.46
2023-04-16T19:16:36.500Z,66.59
2023-04-16T19:19:03.883Z,66.66
2023-04-16T19:21:31.800Z,66.93
2023-04-16T19:23:59.222Z,67.01
2023-04-16T19:26:26.976Z,67.09
2023-04-16T19:28:55.860Z,67.96
2023-04-16T19:31:23.809Z,68.64
2023-04-16T19:33:51.140Z,67.97
2023-04-16T19:36:18.962Z,68.24
2023-04-16T19:38:46.346Z,68.57
2023-04-16T19:41:14.030Z,68.68
2023-04-16T19:43:41.253Z,68.25
2023-04-16T19:46:10.467Z,68.31
2023-04-16T19:48:37.809Z,68.67
2023-04-16T19:51:05.732Z,68.61
2023-04-16T19:53:33.088Z,68.46
2023-04-16T19:56:00.794Z,68.55
2023-04-16T19:58:28.192Z,68.70
2023-04-16T20:00:55.956Z,68.98
2023-04-16T20:03:24.836Z,68.64
2023-04-16T20:05:52.846Z,68.80
2023-04-16T20:08:20.236Z,68.67
2023-04-16T20:10:48.020Z,68.56
2023-04-16T20:13:17.952Z,68.84
2023-04-16T20:15:46.594Z,68.68
2023-04-16T20:18:13.959Z,68.21
2023-04-16T20:20:43.232Z,68.06
2023-04-16T20:23:10.564Z,68.80
2023-04-16T20:25:41.249Z,68.78
2023-04-16T20:28:08.663Z,68.24
2023-04-16T20:30:36.527Z,68.13
2023-04-16T20:33:04.066Z,68.71
2023-04-16T20:35:31.796Z,68.29
2023-04-16T20:38:00.720Z,68.70
2023-04-16T20:40:28.421Z,68.39
2023-04-16T20:42:55.801Z,68.49
2023-04-16T20:45:23.599Z,69.10
2023-04-16T20:47:51.149Z,69.64
2023-04-16T20:50:19.022Z,69.96
2023-04-16T20:52:46.425Z,70.79
2023-04-16T20:55:15.588Z,71.11
2023-04-16T20:57:42.977Z,70.65
2023-04-16T21:00:11.575Z,70.70
2023-04-16T21:02:39.093Z,70.78
2023-04-16T21:05:07.620Z,70.55
2023-04-16T21:07:35.010Z,71.02
2023-04-16T21:10:02.789Z,70.90
2023-04-16T21:12:31.452Z,71.16
2023-04-16T21:14:59.163Z,71.05
2023-04-16T21:17:26.591Z,71.12
2023-04-16T21:19:54.413Z,71.68
2023-04-16T21:22:21.800Z,72.20
2023-04-16T21:24:49.579Z,72.18
2023-04-16T21:27:17.014Z,72.52
2023-04-16T21:29:46.272Z,72.95
2023-04-16T21:32:13.645Z,73.08
2023-04-16T21:34:41.358Z,73.54
2023-04-16T21:37:13.187Z,73.40
2023-04-16T21:39:40.658Z,73.52
2023-04-16T21:42:08.045Z,73.43
2023-04-16T21:44:35.869Z,73.15
2023-04-16T21:47:05.065Z,73.09
2023-04-16T21:49:32.900Z,73.11
2023-04-16T21:52:00.262Z,72.80
2023-04-16T21:54:28.045Z,72.39
2023-04-16T21:56:55.396Z,72.37
2023-04-16T21:59:22.996Z,73.06
2023-04-16T22:01:50.523Z,73.56
2023-04-16T22:04:19.771Z,73.24
2023-04-16T22:06:47.203Z,72.50
2023-04-16T22:09:14.984Z,72.24
2023-04-16T22:11:42.306Z,72.78
2023-04-16T22:14:10.081Z,73.90
2023-04-16T22:16:37.513Z,74.92
2023-04-16T22:19:05.255Z,74.43
2023-04-16T22:21:34.111Z,74.07
2023-04-16T22:24:01.943Z,73.31
2023-04-16T22:26:29.273Z,73.23
2023-04-16T22:28:56.905Z,72.85
2023-04-16T22:31:24.338Z,72.10
2023-04-16T22:33:52.146Z,72.21
2023-04-16T22:36:19.466Z,72.65
2023-04-16T22:38:48.691Z,74.46
2023-04-16T22:41:16.165Z,75.70
2023-04-16T22:43:43.832Z,75.33
2023-04-16T22:46:11.270Z,75.44
2023-04-16T22:48:39.497Z,75.16
2023-04-16T22:51:08.715Z,75.10
2023-04-16T22:53:36.451Z,75.95
2023-04-16T22:56:05.842Z,76.04
2023-04-16T22:58:33.808Z,75.64
2023-04-16T23:01:01.039Z,75.15
2023-04-16T23:03:28.881Z,74.30
2023-04-16T23:05:56.323Z,74.89
2023-04-16T23:08:24.525Z,73.67
2023-04-16T23:10:51.914Z,73.85
2023-04-16T23:13:21.029Z,73.35
2023-04-16T23:15:48.406Z,74.00
2023-04-16T23:18:16.174Z,73.91
2023-04-16T23:20:43.419Z,74.24
2023-04-16T23:23:11.087Z,75.02
2023-04-16T23:25:41.072Z,74.26
2023-04-16T23:28:08.844Z,75.12
2023-04-16T23:30:37.768Z,75.27
2023-04-16T23:33:05.575Z,75.67
2023-04-16T23:35:32.954Z,76.15
2023-04-16T23:38:00.742Z,76.78
2023-04-16T23:40:28.143Z,77.10
2023-04-16T23:42:55.811Z,76.26
2023-04-16T23:45:23.187Z,76.65
2023-04-16T23:47:52.561Z,77.29
2023-04-16T23:50:20.048Z,78.18
2023-04-16T23:52:47.682Z,78.39
2023-04-16T23:55:14.956Z,78.90
2023-04-16T23:57:42.733Z,78.35
